Terminal Aerodrome Forecast
Issued by NWS

Home | Current Version | Previous Version | Text Only | Print | Product List | Glossary On
Versions: 1 2 3 4 5 6 7 8 9 10 11 12 13 14
000
FTUS45 KFGZ 050540
TAFPRC
TAF
KPRC 050540Z 0506/0606 20006KT P6SM SKC
     FM051900 23010G18KT P6SM FEW120
     FM060100 24007KT P6SM SKC
     FM060300 20006KT P6SM SKC=

USA.gov is the U.S. government's official web portal to all federal, state and local government web resources and services.